To NAV CANADA Home Page Login to a new session Search on AWWS site Feedback and Comments Disclaimer Vers la page française équivalente Tips FAQ What's new on the site To the Forecasts and Observations / NOTAM section To "File a Flight Plan" website Publications and other links Update of the User's profile FIC Telephone Numbers My Weather Data Folder Route Weather Data Regional Weather Data Local Weather Data To the Forecasts and Observations / NOTAM section
Request Generated 04/16/2014 at 21:52:32 UTC . Weather information available at that time is displayed.

METAR/TAF

STEPHENVILLE/NL    

SPECI CYJT 162140Z 25020G28KT 12SM SCT012 BKN020 RMK SC4SC3=
SPECI CYJT 162112Z 27020KT 3SM -FZRA -SN BR OVC012 RMK SC8=
METAR CYJT 162000Z 24015KT 3SM -RA BR OVC012 01/M01 A2994 RMK SC8 PRESRR SLP139=
METAR CYJT 161900Z 26015G25KT 3SM -RA BR OVC012 02/00 A2984 RMK SC8 PRESRR SLP106=

TAF AMD CYJT 162116Z 1621/1718 28015G25KT P6SM -FZRA -PL OVC012 TEMPO
1621/1622 2SM -SN
FM162200 28018G28KT P6SM BKN025 TEMPO 1622/1623 4SM -SN OVC015
FM162300 28015G25KT P6SM FEW030
BECMG 1710/1712 31015KT
BECMG 1714/1716 30008KT
RMK NXT FCST BY 170000Z=
Your time UTC time
Weather data provided by Environment Canada and NAV CANADA